Alvin, TX (77511)

9:04 AM CDT on August 30, 2015 (GMT -0500)
CoffeeMuses | | Change Station
CLOSE
Current Station
Personal Weather Station
Location: Alvin, TX
Elevation: 39 ft
Nearby Weather Stations

Elev 39 ft 29.41 °N, 95.23 °W | Updated 14 minutes ago

Partly Cloudy
Partly Cloudy
79.9 °F
Feels Like 87 °F
N
0.0
Wind Variable Wind from ESE

Today
High -- | Low -- °F
--% Chance of Precip.
Yesterday
High -- | Low -- °F
Precip. -- in
6:57 AM 7:45 PM
Full, 99% visible
Pressure 30.04 in
Visibility 10.0 miles
Clouds Clear
Heat Index 87 °F
Dew Point 79 °F
Humidity 98%
Rainfall 0.00 in
Snow Depth Not available.
UV 2 out of 12
Pollen 5.80 out of 12
Air Quality Not available.
Flu Activity Not available.
METAR KLVJ 301353Z AUTO 00000KT 10SM CLR 27/21 A3004 RMK AO2 SLP171 T02670206
Pressure 30.04 in
Visibility 10.0 miles
Clouds Clear
Heat Index 87 °F
Dew Point 79 °F
Humidity 98%
Rainfall 0.00 in
Snow Depth Not available.
UV 2 out of 12
Pollen 5.80 out of 12
Air Quality Not available.
Flu Activity Not available.
METAR KLVJ 301353Z AUTO 00000KT 10SM CLR 27/21 A3004 RMK AO2 SLP171 T02670206

10-Day Weather Forecast

×

Almanac

Astronomy

Aug. 30, 2015 Rise Set
Actual Time
Civil Twilight
Nautical Twilight
Astronomical Twilight
Moon
Length of Visible Light
Length of Day
Tomorrow will be .
, % of the Moon is Illuminated

Today's Extremes

State Highs State Lows

Community

WunderPhotos

Upload Photos

1,850,963 photos uploaded!

WunderBlogs® & News

Nearby

Air Quality

  Air Quality AQ Index Pollutant
Not available.

Snow Depth

Station Depth Elevation

Earthquake Activity

City Distance Mag. Time & Date
Minimum magnitude displayed is 2.5.

Coastal Water Temperatures

Place Temperature

Stations

Nearby Weather Stations

Station Location Temp. Windchill Dew Point Humidity Wind Precip. Elev Updated Type